createdAt,value
2023-03-17T00:01:17.073Z,8.30
2023-03-17T00:03:54.734Z,8.30
2023-03-17T00:06:35.414Z,8.30
2023-03-17T00:09:18.210Z,8.30
2023-03-17T00:11:54.870Z,8.20
2023-03-17T00:14:30.973Z,8.20
2023-03-17T00:17:07.494Z,8.20
2023-03-17T00:19:45.737Z,8.10
2023-03-17T00:22:25.506Z,8.10
2023-03-17T00:25:02.595Z,8.10
2023-03-17T00:27:40.077Z,8.06
2023-03-17T00:30:24.153Z,8.00
2023-03-17T00:33:03.833Z,8.00
2023-03-17T00:35:40.426Z,8.00
2023-03-17T00:38:22.717Z,8.00
2023-03-17T00:41:00.095Z,7.98
2023-03-17T00:43:36.968Z,7.90
2023-03-17T00:46:18.723Z,7.90
2023-03-17T00:48:55.205Z,7.80
2023-03-17T00:51:31.502Z,7.82
2023-03-17T00:54:09.142Z,7.90
2023-03-17T00:56:46.916Z,7.90
2023-03-17T00:59:31.750Z,7.82
2023-03-17T01:02:08.030Z,7.80
2023-03-17T01:04:49.962Z,7.80
2023-03-17T01:07:30.895Z,7.80
2023-03-17T01:10:14.426Z,7.76
2023-03-17T01:12:50.070Z,7.70
2023-03-17T01:15:28.759Z,7.72
2023-03-17T01:18:05.430Z,7.70
2023-03-17T01:20:43.011Z,7.70
2023-03-17T01:23:20.303Z,7.70
2023-03-17T01:25:56.524Z,7.70
2023-03-17T01:28:32.901Z,7.70
2023-03-17T01:31:10.350Z,7.70
2023-03-17T01:33:47.096Z,7.70
2023-03-17T01:36:23.476Z,7.70
2023-03-17T01:39:00.488Z,7.70
2023-03-17T01:41:40.500Z,7.70
2023-03-17T01:44:21.747Z,7.70
2023-03-17T01:46:58.421Z,7.70
2023-03-17T01:49:40.059Z,7.70
2023-03-17T01:52:23.089Z,7.68
2023-03-17T01:55:05.478Z,7.60
2023-03-17T01:57:47.488Z,7.60
2023-03-17T02:00:28.561Z,7.60
2023-03-17T02:03:06.189Z,7.60
2023-03-17T02:05:44.225Z,7.60
2023-03-17T02:08:20.501Z,7.60
2023-03-17T02:10:58.633Z,7.60
2023-03-17T02:13:37.327Z,7.60
2023-03-17T02:16:19.517Z,7.60
2023-03-17T02:18:56.895Z,7.60
2023-03-17T02:21:49.024Z,7.60
2023-03-17T02:24:34.156Z,7.60
2023-03-17T02:27:16.077Z,7.60
2023-03-17T02:29:52.979Z,7.52
2023-03-17T02:32:28.952Z,7.52
2023-03-17T02:35:05.069Z,7.50
2023-03-17T02:37:42.115Z,7.50
2023-03-17T02:40:21.579Z,7.50
2023-03-17T02:42:56.905Z,7.50
2023-03-17T02:45:38.956Z,7.50
2023-03-17T02:48:15.902Z,7.50
2023-03-17T02:50:53.134Z,7.50
2023-03-17T02:53:30.594Z,7.40
2023-03-17T02:56:07.596Z,7.40
2023-03-17T02:58:44.956Z,7.40
2023-03-17T03:01:21.597Z,7.40
2023-03-17T03:03:58.569Z,7.40
2023-03-17T03:06:35.797Z,7.40
2023-03-17T03:09:12.909Z,7.40
2023-03-17T03:11:49.891Z,7.40
2023-03-17T03:14:26.300Z,7.40
2023-03-17T03:17:02.378Z,7.40
2023-03-17T03:19:38.595Z,7.40
2023-03-17T03:22:16.592Z,7.30
2023-03-17T03:24:53.944Z,7.30
2023-03-17T03:27:30.410Z,7.30
2023-03-17T03:30:08.684Z,7.30
2023-03-17T03:32:45.270Z,7.30
2023-03-17T03:35:22.551Z,7.30
2023-03-17T03:37:59.746Z,7.30
2023-03-17T03:40:35.899Z,7.30
2023-03-17T03:43:23.000Z,7.30
2023-03-17T03:45:59.992Z,7.30
2023-03-17T03:48:37.150Z,7.30
2023-03-17T03:51:14.471Z,7.30
2023-03-17T03:53:50.702Z,7.30
2023-03-17T03:56:27.202Z,7.30
2023-03-17T03:59:03.941Z,7.30
2023-03-17T04:01:41.942Z,7.28
2023-03-17T04:04:18.763Z,7.20
2023-03-17T04:06:55.613Z,7.20
2023-03-17T04:09:32.716Z,7.20
2023-03-17T04:12:11.467Z,7.20
2023-03-17T04:14:48.151Z,7.20
2023-03-17T04:17:24.543Z,7.20
2023-03-17T04:20:00.758Z,7.20
2023-03-17T04:22:37.202Z,7.20
2023-03-17T04:25:17.105Z,7.20
2023-03-17T04:27:52.566Z,7.20
2023-03-17T04:30:30.199Z,7.20
2023-03-17T04:33:07.442Z,7.20
2023-03-17T04:35:44.725Z,7.16
2023-03-17T04:38:21.880Z,7.10
2023-03-17T04:40:59.726Z,7.10
2023-03-17T04:43:36.235Z,7.10
2023-03-17T04:46:13.611Z,7.10
2023-03-17T04:48:50.389Z,7.10
2023-03-17T04:51:27.462Z,7.10
2023-03-17T04:54:04.539Z,7.08
2023-03-17T04:56:41.378Z,7.00
2023-03-17T04:59:17.567Z,7.00
2023-03-17T05:01:54.697Z,7.00
2023-03-17T05:04:32.458Z,7.00
2023-03-17T05:07:08.924Z,7.00
2023-03-17T05:09:46.052Z,7.00
2023-03-17T05:12:23.809Z,7.08
2023-03-17T05:15:00.735Z,7.10
2023-03-17T05:17:37.615Z,7.10
2023-03-17T05:20:20.074Z,7.08
2023-03-17T05:22:56.935Z,7.00
2023-03-17T05:25:33.321Z,7.00
2023-03-17T05:28:11.064Z,7.00
2023-03-17T05:30:48.350Z,7.00
2023-03-17T05:33:25.644Z,7.00
2023-03-17T05:36:02.756Z,7.00
2023-03-17T05:38:40.147Z,7.00
2023-03-17T05:41:16.663Z,7.00
2023-03-17T05:43:53.096Z,7.00
2023-03-17T05:46:29.857Z,7.04
2023-03-17T05:49:07.003Z,7.04
2023-03-17T05:51:44.361Z,7.10
2023-03-17T05:54:21.342Z,7.10
2023-03-17T05:56:58.434Z,7.10
2023-03-17T05:59:35.210Z,7.20
2023-03-17T06:02:14.211Z,7.30
2023-03-17T06:04:50.851Z,7.40
2023-03-17T06:07:33.060Z,7.50
2023-03-17T06:10:20.120Z,7.50
2023-03-17T06:12:56.495Z,7.60
2023-03-17T06:15:33.741Z,7.60
2023-03-17T06:18:10.860Z,7.70
2023-03-17T06:20:47.207Z,7.70
2023-03-17T06:23:24.388Z,7.80
2023-03-17T06:26:00.921Z,7.90
2023-03-17T06:28:38.300Z,8.00
2023-03-17T06:31:15.443Z,8.10
2023-03-17T06:33:52.351Z,8.20
2023-03-17T06:36:28.882Z,8.28
2023-03-17T06:39:05.439Z,8.38
2023-03-17T06:41:42.659Z,8.40
2023-03-17T06:44:19.278Z,8.52
2023-03-17T06:46:55.281Z,8.60
2023-03-17T06:49:32.221Z,8.60
2023-03-17T06:52:11.123Z,8.70
2023-03-17T06:54:48.677Z,8.70
2023-03-17T06:57:26.071Z,8.70
2023-03-17T07:00:03.841Z,8.80
2023-03-17T07:02:41.219Z,8.90
2023-03-17T07:05:18.400Z,8.92
2023-03-17T07:07:55.656Z,9.00
2023-03-17T07:10:33.556Z,9.10
2023-03-17T07:13:10.424Z,9.20
2023-03-17T07:15:49.192Z,9.30
2023-03-17T07:18:25.625Z,9.40
2023-03-17T07:21:03.364Z,9.58
2023-03-17T07:23:40.075Z,9.70
2023-03-17T07:26:16.503Z,9.70
2023-03-17T07:28:52.953Z,9.80
2023-03-17T07:31:30.046Z,9.90
2023-03-17T07:34:06.819Z,10.00
2023-03-17T07:36:42.994Z,10.06
2023-03-17T07:39:19.897Z,10.20
2023-03-17T07:41:57.323Z,10.30
2023-03-17T07:44:34.578Z,10.30
2023-03-17T07:47:15.108Z,10.42
2023-03-17T07:49:52.125Z,10.56
2023-03-17T07:52:28.900Z,10.70
2023-03-17T07:55:08.729Z,10.80
2023-03-17T07:57:45.530Z,10.92
2023-03-17T08:00:35.219Z,11.10
2023-03-17T08:03:14.017Z,11.20
2023-03-17T08:05:55.706Z,11.30
2023-03-17T08:08:33.205Z,11.40
2023-03-17T08:11:12.429Z,11.52
2023-03-17T08:13:48.299Z,11.66
2023-03-17T08:16:24.509Z,11.70
2023-03-17T08:19:01.623Z,11.80
2023-03-17T08:21:37.870Z,11.90
2023-03-17T08:24:15.823Z,12.00
2023-03-17T08:26:54.884Z,12.10
2023-03-17T08:29:31.675Z,12.20
2023-03-17T08:32:09.499Z,12.30
2023-03-17T08:34:46.510Z,12.30
2023-03-17T08:37:25.592Z,12.40
2023-03-17T08:40:01.935Z,12.48
2023-03-17T08:42:39.115Z,12.50
2023-03-17T08:45:18.686Z,12.60
2023-03-17T08:47:54.972Z,12.70
2023-03-17T08:50:32.212Z,12.70
2023-03-17T08:53:09.854Z,12.80
2023-03-17T08:55:48.330Z,12.80
2023-03-17T08:58:25.624Z,12.82
2023-03-17T09:01:04.260Z,12.90
2023-03-17T09:03:42.064Z,12.90
2023-03-17T09:06:18.405Z,12.90
2023-03-17T09:08:56.046Z,13.00
2023-03-17T09:11:35.298Z,13.00
2023-03-17T09:14:12.642Z,13.00
2023-03-17T09:16:49.800Z,13.00
2023-03-17T09:19:26.993Z,13.00
2023-03-17T09:22:05.656Z,13.00
2023-03-17T09:24:42.138Z,13.00
2023-03-17T09:27:19.017Z,13.10
2023-03-17T09:29:55.289Z,13.10
2023-03-17T09:32:31.640Z,13.10
2023-03-17T09:35:08.888Z,13.20
2023-03-17T09:37:46.247Z,13.20
2023-03-17T09:40:32.189Z,13.30
2023-03-17T09:43:22.506Z,13.38
2023-03-17T09:46:00.304Z,13.40
2023-03-17T09:49:01.190Z,13.40
2023-03-17T09:51:38.933Z,13.40
2023-03-17T09:54:33.668Z,13.40
2023-03-17T09:57:19.906Z,13.40
2023-03-17T10:00:05.815Z,13.40
2023-03-17T10:02:44.699Z,13.50
2023-03-17T10:05:28.610Z,13.50
2023-03-17T10:08:29.443Z,13.60
2023-03-17T10:11:15.521Z,13.70
2023-03-17T10:14:04.284Z,13.80
2023-03-17T10:16:54.191Z,13.80
2023-03-17T10:19:37.644Z,13.90
2023-03-17T10:22:23.836Z,13.90
2023-03-17T10:25:05.932Z,14.00
2023-03-17T10:27:45.510Z,14.00
2023-03-17T10:30:25.382Z,14.10
2023-03-17T10:33:07.185Z,14.20
2023-03-17T10:35:45.119Z,14.26
2023-03-17T10:38:26.931Z,14.30
2023-03-17T10:41:12.480Z,14.36
2023-03-17T10:43:54.140Z,14.40
2023-03-17T10:46:32.304Z,14.50
2023-03-17T10:49:23.172Z,14.60
2023-03-17T10:52:00.935Z,14.62
2023-03-17T10:54:42.046Z,14.66
2023-03-17T10:57:21.841Z,14.70
2023-03-17T11:00:00.067Z,14.70
2023-03-17T11:02:46.685Z,14.70
2023-03-17T11:05:29.446Z,14.70
2023-03-17T11:08:21.903Z,14.80
2023-03-17T11:11:02.135Z,14.80
2023-03-17T11:13:38.879Z,14.90
2023-03-17T11:16:27.432Z,14.92
2023-03-17T11:19:08.917Z,15.00
2023-03-17T11:21:58.087Z,15.10
2023-03-17T11:24:41.856Z,15.10
2023-03-17T11:27:32.512Z,15.10
2023-03-17T11:30:25.373Z,15.20
2023-03-17T11:33:14.857Z,15.24
2023-03-17T11:36:00.772Z,15.30
2023-03-17T11:38:44.820Z,15.40
2023-03-17T11:41:47.314Z,15.40
2023-03-17T11:45:01.484Z,15.40
2023-03-17T11:47:59.966Z,15.40
2023-03-17T11:50:51.386Z,15.40
2023-03-17T11:53:57.646Z,15.50
2023-03-17T11:56:47.920Z,15.60
2023-03-17T11:59:42.239Z,15.50
2023-03-17T12:02:30.993Z,15.60
2023-03-17T12:05:13.538Z,15.60
2023-03-17T12:07:56.327Z,15.70
2023-03-17T12:10:40.971Z,15.70
2023-03-17T12:13:24.012Z,15.80
2023-03-17T12:16:07.537Z,15.80
2023-03-17T12:18:51.879Z,15.90
2023-03-17T12:21:37.616Z,16.00
2023-03-17T12:24:22.528Z,16.08
2023-03-17T12:27:05.183Z,16.10
2023-03-17T12:29:50.194Z,16.20
2023-03-17T12:32:36.130Z,16.20
2023-03-17T12:35:32.528Z,16.20
2023-03-17T12:38:20.433Z,16.20
2023-03-17T12:41:29.428Z,16.30
2023-03-17T12:44:26.350Z,16.30
2023-03-17T12:47:34.876Z,16.30
2023-03-17T12:50:41.575Z,16.40
2023-03-17T12:53:34.252Z,16.40
2023-03-17T12:56:24.750Z,16.50
2023-03-17T12:59:08.812Z,16.50
2023-03-17T13:01:57.924Z,16.50
2023-03-17T13:04:39.120Z,16.60
2023-03-17T13:07:22.530Z,16.50
2023-03-17T13:10:38.492Z,16.50
2023-03-17T13:13:35.945Z,16.50
2023-03-17T13:16:32.551Z,16.50
2023-03-17T13:19:28.459Z,16.50
2023-03-17T13:22:44.849Z,16.50
2023-03-17T13:25:38.750Z,16.42
2023-03-17T13:28:45.307Z,16.40
2023-03-17T13:31:38.974Z,16.40
2023-03-17T13:34:22.518Z,16.40
2023-03-17T13:37:21.988Z,16.40
2023-03-17T13:40:16.893Z,16.40
2023-03-17T13:43:13.502Z,16.42
2023-03-17T13:45:52.093Z,16.50
2023-03-17T13:48:40.751Z,16.50
2023-03-17T13:51:27.581Z,16.50
2023-03-17T13:54:22.737Z,16.52
2023-03-17T13:57:01.568Z,16.60
2023-03-17T14:00:01.433Z,16.60
2023-03-17T14:02:42.911Z,16.60
2023-03-17T14:05:30.613Z,16.60
2023-03-17T14:08:18.502Z,16.70
2023-03-17T14:11:01.926Z,16.78
2023-03-17T14:13:49.958Z,16.80
2023-03-17T14:16:33.485Z,16.74
2023-03-17T14:19:26.453Z,16.70
2023-03-17T14:22:24.119Z,16.78
2023-03-17T14:25:08.489Z,16.80
2023-03-17T14:27:46.383Z,16.70
2023-03-17T14:30:31.664Z,16.70
2023-03-17T14:33:25.720Z,16.70
2023-03-17T14:36:04.485Z,16.70
2023-03-17T14:38:49.162Z,16.70
2023-03-17T14:41:28.584Z,16.60
2023-03-17T14:44:08.161Z,16.50
2023-03-17T14:46:46.342Z,16.50
2023-03-17T14:49:25.833Z,16.46
2023-03-17T14:52:02.872Z,16.40
2023-03-17T14:54:42.475Z,16.40
2023-03-17T14:57:24.886Z,16.40
2023-03-17T15:00:30.425Z,16.32
2023-03-17T15:03:18.978Z,16.30
2023-03-17T15:06:06.269Z,16.28
2023-03-17T15:09:00.816Z,16.20
2023-03-17T15:11:47.700Z,16.22
2023-03-17T15:14:31.829Z,16.22
2023-03-17T15:17:10.250Z,16.20
2023-03-17T15:19:50.192Z,16.20
2023-03-17T15:22:42.446Z,16.20
2023-03-17T15:25:35.741Z,16.10
2023-03-17T15:28:20.224Z,16.00
2023-03-17T15:31:01.468Z,15.96
2023-03-17T15:33:41.269Z,15.90
2023-03-17T15:36:32.341Z,15.90
2023-03-17T15:39:13.471Z,15.80
2023-03-17T15:41:50.758Z,15.80
2023-03-17T15:44:27.318Z,15.72
2023-03-17T15:47:05.068Z,15.70
2023-03-17T15:49:41.386Z,15.70
2023-03-17T15:52:25.379Z,15.70
2023-03-17T15:55:05.102Z,15.70
2023-03-17T15:57:50.793Z,15.66
2023-03-17T16:00:31.937Z,15.60
2023-03-17T16:03:19.812Z,15.60
2023-03-17T16:05:56.976Z,15.60
2023-03-17T16:08:33.073Z,15.60
2023-03-17T16:11:13.246Z,15.52
2023-03-17T16:13:50.485Z,15.50
2023-03-17T16:16:38.249Z,15.40
2023-03-17T16:19:22.401Z,15.40
2023-03-17T16:21:59.443Z,15.38
2023-03-17T16:24:36.871Z,15.30
2023-03-17T16:27:20.033Z,15.20
2023-03-17T16:29:55.910Z,15.20
2023-03-17T16:32:32.943Z,15.10
2023-03-17T16:35:16.252Z,15.04
2023-03-17T16:37:54.499Z,15.00
2023-03-17T16:40:36.206Z,15.00
2023-03-17T16:43:28.227Z,14.90
2023-03-17T16:46:06.797Z,14.90
2023-03-17T16:48:43.378Z,14.90
2023-03-17T16:51:20.121Z,14.80
2023-03-17T16:53:56.885Z,14.80
2023-03-17T16:56:35.678Z,14.80
2023-03-17T16:59:13.014Z,14.80
2023-03-17T17:01:49.971Z,14.70
2023-03-17T17:04:27.130Z,14.70
2023-03-17T17:07:05.345Z,14.68
2023-03-17T17:09:41.626Z,14.60
2023-03-17T17:12:20.546Z,14.60
2023-03-17T17:14:57.875Z,14.54
2023-03-17T17:17:34.803Z,14.50
2023-03-17T17:20:16.315Z,14.50
2023-03-17T17:22:52.615Z,14.50
2023-03-17T17:25:30.261Z,14.50
2023-03-17T17:28:07.121Z,14.44
2023-03-17T17:30:45.540Z,14.40
2023-03-17T17:33:22.661Z,14.40
2023-03-17T17:36:00.601Z,14.40
2023-03-17T17:38:37.370Z,14.30
2023-03-17T17:41:15.190Z,14.30
2023-03-17T17:43:50.601Z,14.30
2023-03-17T17:46:28.599Z,14.20
2023-03-17T17:49:04.987Z,14.18
2023-03-17T17:51:41.926Z,14.10
2023-03-17T17:54:19.045Z,13.90
2023-03-17T17:56:55.236Z,13.80
2023-03-17T17:59:31.782Z,13.70
2023-03-17T18:02:08.943Z,13.60
2023-03-17T18:04:45.588Z,13.50
2023-03-17T18:07:21.779Z,13.40
2023-03-17T18:09:58.745Z,13.30
2023-03-17T18:12:35.530Z,13.20
2023-03-17T18:15:16.097Z,13.10
2023-03-17T18:17:53.063Z,13.00
2023-03-17T18:20:31.654Z,12.90
2023-03-17T18:23:08.284Z,12.80
2023-03-17T18:25:45.576Z,12.76
2023-03-17T18:28:22.540Z,12.70
2023-03-17T18:31:05.167Z,12.64
2023-03-17T18:33:43.029Z,12.60
2023-03-17T18:36:20.741Z,12.50
2023-03-17T18:38:56.791Z,12.48
2023-03-17T18:41:34.644Z,12.40
2023-03-17T18:44:21.642Z,12.30
2023-03-17T18:46:57.886Z,12.28
2023-03-17T18:49:34.839Z,12.20
2023-03-17T18:52:12.400Z,12.20
2023-03-17T18:54:48.867Z,12.20
2023-03-17T18:57:25.706Z,12.10
2023-03-17T19:00:01.863Z,12.10
2023-03-17T19:02:39.117Z,12.00
2023-03-17T19:05:17.368Z,11.90
2023-03-17T19:07:54.277Z,11.90
2023-03-17T19:10:31.510Z,11.90
2023-03-17T19:13:10.186Z,11.80
2023-03-17T19:15:50.491Z,11.80
2023-03-17T19:18:27.348Z,11.76
2023-03-17T19:21:03.280Z,11.70
2023-03-17T19:23:39.306Z,11.70
2023-03-17T19:26:15.848Z,11.70
2023-03-17T19:28:56.502Z,11.64
2023-03-17T19:31:33.299Z,11.60
2023-03-17T19:34:10.267Z,11.60
2023-03-17T19:36:48.932Z,11.50
2023-03-17T19:39:25.341Z,11.50
2023-03-17T19:42:01.631Z,11.48
2023-03-17T19:44:37.422Z,11.40
2023-03-17T19:47:15.063Z,11.30
2023-03-17T19:49:52.218Z,11.30
2023-03-17T19:52:30.111Z,11.20
2023-03-17T19:55:08.351Z,11.20
2023-03-17T19:57:46.318Z,11.20
2023-03-17T20:00:27.086Z,11.20
2023-03-17T20:03:03.685Z,11.10
2023-03-17T20:05:42.116Z,11.16
2023-03-17T20:08:19.299Z,11.10
2023-03-17T20:10:57.494Z,11.04
2023-03-17T20:13:34.104Z,10.90
2023-03-17T20:16:12.668Z,10.80
2023-03-17T20:18:49.703Z,10.80
2023-03-17T20:21:26.079Z,10.80
2023-03-17T20:24:03.031Z,10.80
2023-03-17T20:26:41.306Z,10.70
2023-03-17T20:29:19.316Z,10.70
2023-03-17T20:31:55.543Z,10.70
2023-03-17T20:34:32.059Z,10.74
2023-03-17T20:37:08.708Z,10.80
2023-03-17T20:39:46.501Z,10.80
2023-03-17T20:42:22.972Z,10.80
2023-03-17T20:45:01.127Z,10.80
2023-03-17T20:47:38.069Z,10.80
2023-03-17T20:50:20.014Z,10.80
2023-03-17T20:52:56.944Z,10.80
2023-03-17T20:55:45.251Z,10.86
2023-03-17T20:58:22.459Z,10.80
2023-03-17T21:01:11.209Z,10.80
2023-03-17T21:06:44.586Z,10.80
2023-03-17T21:09:29.657Z,10.80
2023-03-17T21:12:06.254Z,10.74
2023-03-17T21:14:43.219Z,10.70
2023-03-17T21:17:28.801Z,10.70
2023-03-17T21:20:18.353Z,10.60
2023-03-17T21:23:06.180Z,10.60
2023-03-17T21:25:43.120Z,10.60
2023-03-17T21:28:19.853Z,10.60
2023-03-17T21:30:57.116Z,10.60
2023-03-17T21:33:44.524Z,10.52
2023-03-17T21:36:21.332Z,10.50
2023-03-17T21:38:57.204Z,10.50
2023-03-17T21:41:38.817Z,10.40
2023-03-17T21:44:16.070Z,10.40
2023-03-17T21:46:52.584Z,10.40
2023-03-17T21:49:29.676Z,10.30
2023-03-17T21:52:05.046Z,10.30
2023-03-17T21:54:51.192Z,10.20
2023-03-17T21:57:27.696Z,10.20
2023-03-17T22:00:04.612Z,10.20
2023-03-17T22:02:48.396Z,10.10
2023-03-17T22:05:24.625Z,10.10
2023-03-17T22:08:01.193Z,10.10
2023-03-17T22:10:38.275Z,10.10
2023-03-17T22:13:14.943Z,10.00
2023-03-17T22:15:52.854Z,10.00
2023-03-17T22:18:29.964Z,10.00
2023-03-17T22:21:06.890Z,9.90
2023-03-17T22:23:44.629Z,9.90
2023-03-17T22:26:24.252Z,9.90
2023-03-17T22:29:00.797Z,9.82
2023-03-17T22:31:38.033Z,9.88
2023-03-17T22:34:14.152Z,9.90
2023-03-17T22:36:50.104Z,9.80
2023-03-17T22:39:28.002Z,9.80
2023-03-17T22:42:05.380Z,9.80
2023-03-17T22:44:42.478Z,9.70
2023-03-17T22:47:19.635Z,9.70
2023-03-17T22:49:56.315Z,9.60
2023-03-17T22:52:41.429Z,9.60
2023-03-17T22:55:19.211Z,9.58
2023-03-17T22:57:55.322Z,9.50
2023-03-17T23:00:33.419Z,9.40
2023-03-17T23:03:10.331Z,9.40
2023-03-17T23:05:52.219Z,9.30
2023-03-17T23:08:30.233Z,9.30
2023-03-17T23:11:19.544Z,9.30
2023-03-17T23:13:55.833Z,9.20
2023-03-17T23:16:32.313Z,9.20
2023-03-17T23:19:08.662Z,9.20
2023-03-17T23:21:54.942Z,9.20
2023-03-17T23:24:32.309Z,9.20
2023-03-17T23:27:09.596Z,9.10
2023-03-17T23:29:46.324Z,9.10
2023-03-17T23:32:23.806Z,9.00
2023-03-17T23:35:00.031Z,9.00
2023-03-17T23:37:46.528Z,9.00
2023-03-17T23:40:23.922Z,8.96
2023-03-17T23:42:59.989Z,8.90
2023-03-17T23:45:36.623Z,8.90
2023-03-17T23:48:14.025Z,8.90
2023-03-17T23:50:52.450Z,8.88
2023-03-17T23:53:28.452Z,8.80
2023-03-17T23:56:04.360Z,8.80
2023-03-17T23:58:40.811Z,8.80
